createdAt,value
2022-11-28T00:03:11.169Z,22.93
2022-11-28T00:08:17.008Z,26.80
2022-11-28T00:13:22.472Z,25.10
2022-11-28T00:18:28.403Z,25.63
2022-11-28T00:23:34.295Z,25.37
2022-11-28T00:28:40.066Z,25.57
2022-11-28T00:33:45.600Z,21.63
2022-11-28T00:38:52.033Z,23.23
2022-11-28T00:43:58.448Z,20.30
2022-11-28T00:49:04.120Z,21.47
2022-11-28T00:54:09.646Z,25.57
2022-11-28T00:59:15.133Z,19.97
2022-11-28T01:04:20.534Z,22.50
2022-11-28T01:09:26.447Z,21.80
2022-11-28T01:14:32.183Z,18.70
2022-11-28T01:19:37.644Z,21.67
2022-11-28T01:24:43.312Z,20.03
2022-11-28T01:29:49.105Z,17.60
2022-11-28T01:34:54.574Z,18.20
2022-11-28T01:40:00.038Z,20.67
2022-11-28T01:45:23.634Z,17.33
2022-11-28T01:50:30.701Z,17.10
2022-11-28T01:55:39.197Z,18.90
2022-11-28T02:00:44.632Z,16.87
2022-11-28T02:05:52.491Z,17.43
2022-11-28T02:11:17.239Z,18.03
2022-11-28T02:16:28.390Z,21.60
2022-11-28T02:21:46.050Z,21.50
2022-11-28T02:27:03.336Z,19.87
2022-11-28T02:32:22.979Z,15.80
2022-11-28T02:37:37.383Z,20.50
2022-11-28T02:42:48.409Z,16.10
2022-11-28T02:47:56.827Z,19.37
2022-11-28T02:53:17.107Z,21.03
2022-11-28T02:58:22.506Z,21.93
2022-11-28T03:03:46.321Z,22.50
2022-11-28T03:09:07.123Z,21.67
2022-11-28T03:14:27.620Z,20.93
2022-11-28T03:19:36.129Z,17.73
2022-11-28T03:25:02.558Z,23.03
2022-11-28T03:30:19.662Z,21.97
2022-11-28T03:35:28.059Z,18.70
2022-11-28T03:40:36.495Z,17.67
2022-11-28T03:45:44.939Z,20.50
2022-11-28T03:50:53.385Z,18.17
2022-11-28T03:56:14.048Z,19.73
2022-11-28T04:01:42.170Z,20.10
2022-11-28T04:06:56.746Z,22.40
2022-11-28T04:12:11.243Z,21.17
2022-11-28T04:17:22.642Z,19.40
2022-11-28T04:22:33.816Z,22.63
2022-11-28T04:27:45.078Z,27.57
2022-11-28T04:32:53.523Z,25.97
2022-11-28T04:38:01.290Z,23.30
2022-11-28T04:43:12.575Z,26.43
2022-11-28T04:48:18.495Z,27.50
2022-11-28T04:53:45.269Z,27.80
2022-11-28T04:58:51.973Z,27.87
2022-11-28T05:03:58.169Z,27.30
2022-11-28T05:09:04.598Z,31.73
2022-11-28T05:14:10.236Z,34.10
2022-11-28T05:19:16.156Z,35.10
2022-11-28T05:24:22.570Z,35.43
2022-11-28T05:29:28.112Z,42.77
2022-11-28T05:34:33.493Z,44.83
2022-11-28T05:39:39.048Z,43.80
2022-11-28T05:44:44.442Z,44.97
2022-11-28T05:49:49.906Z,42.07
2022-11-28T05:54:55.367Z,43.17
2022-11-28T06:00:00.834Z,41.80
2022-11-28T06:05:34.825Z,38.20
2022-11-28T06:10:15.781Z,34.30
2022-11-28T06:15:21.168Z,33.43
2022-11-28T06:20:26.801Z,34.07
2022-11-28T06:25:32.193Z,36.57
2022-11-28T06:30:37.668Z,31.97
2022-11-28T06:35:43.133Z,32.77
2022-11-28T06:40:48.543Z,32.17
2022-11-28T06:45:54.135Z,33.57
2022-11-28T06:51:06.568Z,29.40
2022-11-28T06:56:14.977Z,33.80
2022-11-28T07:01:22.981Z,38.20
2022-11-28T07:06:29.809Z,31.27
2022-11-28T07:11:35.208Z,31.07
2022-11-28T07:16:41.344Z,33.40
2022-11-28T07:21:46.889Z,33.30
2022-11-28T07:26:52.449Z,32.13
2022-11-28T07:31:57.941Z,32.10
2022-11-28T07:37:03.641Z,32.43
2022-11-28T07:42:09.040Z,33.73
2022-11-28T07:47:14.435Z,31.87
2022-11-28T07:52:19.844Z,28.27
2022-11-28T07:57:25.309Z,32.07
2022-11-28T08:02:32.671Z,27.87
2022-11-28T08:07:38.282Z,32.77
2022-11-28T08:12:43.897Z,29.70
2022-11-28T08:17:49.309Z,28.23
2022-11-28T08:22:54.711Z,27.37
2022-11-28T08:28:00.176Z,28.67
2022-11-28T08:33:05.572Z,25.13
2022-11-28T08:38:10.971Z,24.73
2022-11-28T08:43:16.372Z,23.43
2022-11-28T08:48:21.877Z,24.60
2022-11-28T08:53:27.918Z,22.90
2022-11-28T08:58:33.325Z,22.30
2022-11-28T09:03:38.823Z,23.30
2022-11-28T09:08:45.353Z,23.70
2022-11-28T09:13:51.292Z,22.93
2022-11-28T09:18:58.712Z,25.03
2022-11-28T09:24:04.419Z,21.67
2022-11-28T09:29:09.814Z,25.60
2022-11-28T09:34:15.201Z,19.27
2022-11-28T09:39:20.615Z,20.37
2022-11-28T09:44:53.808Z,24.20
2022-11-28T09:50:07.004Z,20.70
2022-11-28T09:55:35.834Z,21.40
2022-11-28T10:00:44.287Z,23.97
2022-11-28T10:05:55.413Z,20.80
2022-11-28T10:11:06.823Z,19.07
2022-11-28T10:16:21.162Z,22.73
2022-11-28T10:21:29.741Z,21.03
2022-11-28T10:26:40.255Z,18.80
2022-11-28T10:31:47.761Z,19.03
2022-11-28T10:37:12.815Z,16.13
2022-11-28T10:42:49.744Z,18.40
2022-11-28T10:48:38.915Z,17.23
2022-11-28T10:53:26.209Z,18.43
2022-11-28T10:58:34.676Z,17.23
2022-11-28T11:03:41.685Z,15.57
2022-11-28T11:08:48.723Z,18.60
2022-11-28T11:14:08.776Z,18.73
2022-11-28T11:19:19.788Z,19.43
2022-11-28T11:24:25.175Z,19.30
2022-11-28T11:29:35.707Z,17.90
2022-11-28T11:34:46.583Z,17.67
2022-11-28T11:39:54.151Z,19.10
2022-11-28T11:45:18.849Z,16.00
2022-11-28T11:50:26.682Z,17.80
2022-11-28T11:55:34.952Z,19.23
2022-11-28T12:00:42.363Z,15.47
2022-11-28T12:06:16.375Z,16.93
2022-11-28T12:11:03.790Z,16.93
2022-11-28T12:16:27.322Z,14.53
2022-11-28T12:21:38.618Z,14.43
2022-11-28T12:26:58.915Z,15.97
2022-11-28T12:32:07.350Z,18.03
2022-11-28T12:38:02.661Z,14.40
2022-11-28T12:43:18.613Z,17.27
2022-11-28T12:48:53.598Z,15.73
2022-11-28T12:54:02.304Z,14.97
2022-11-28T12:59:11.786Z,15.37
2022-11-28T13:04:31.963Z,16.17
2022-11-28T13:09:46.841Z,18.23
2022-11-28T13:15:01.738Z,14.63
2022-11-28T13:20:28.051Z,15.17
2022-11-28T13:25:48.688Z,16.63
2022-11-28T13:31:00.077Z,15.63
2022-11-28T13:36:08.332Z,16.20
2022-11-28T13:41:59.474Z,17.33
2022-11-28T13:46:31.855Z,17.50
2022-11-28T13:51:37.954Z,19.37
2022-11-28T13:56:44.299Z,14.93
2022-11-28T14:01:52.769Z,16.17
2022-11-28T14:07:04.991Z,18.63
2022-11-28T14:12:22.540Z,16.37
2022-11-28T14:17:36.622Z,24.53
2022-11-28T14:23:08.762Z,20.73
2022-11-28T14:28:37.021Z,23.77
2022-11-28T14:33:44.830Z,19.57
2022-11-28T14:39:06.407Z,18.83
2022-11-28T14:44:50.732Z,19.80
2022-11-28T14:50:13.234Z,22.30
2022-11-28T14:55:28.233Z,18.10
2022-11-28T15:00:51.649Z,20.27
2022-11-28T15:06:06.044Z,20.60
2022-11-28T15:11:39.312Z,22.97
2022-11-28T15:16:50.635Z,20.87
2022-11-28T15:21:58.437Z,22.23
2022-11-28T15:27:12.718Z,19.80
2022-11-28T15:32:18.325Z,19.70
2022-11-28T15:37:27.101Z,20.03
2022-11-28T15:42:35.506Z,21.53
2022-11-28T15:47:41.537Z,23.60
2022-11-28T15:53:17.650Z,24.90
2022-11-28T15:58:31.272Z,20.40
2022-11-28T16:03:46.495Z,26.43
2022-11-28T16:09:01.022Z,27.50
2022-11-28T16:14:11.937Z,27.83
2022-11-28T16:19:36.080Z,35.80
2022-11-28T16:24:50.302Z,29.70
2022-11-28T16:29:56.110Z,32.03
2022-11-28T16:35:03.464Z,30.10
2022-11-28T16:40:23.641Z,28.47
2022-11-28T16:45:32.769Z,26.70
2022-11-28T16:50:38.949Z,26.17
2022-11-28T16:55:46.244Z,25.90
2022-11-28T17:01:03.263Z,27.90
2022-11-28T17:06:11.898Z,26.50
2022-11-28T17:11:20.101Z,29.70
2022-11-28T17:16:28.267Z,31.23
2022-11-28T17:21:46.071Z,30.23
2022-11-28T17:26:53.171Z,28.13
2022-11-28T17:31:59.537Z,23.40
2022-11-28T17:37:05.374Z,26.30
2022-11-28T17:42:12.127Z,29.53
2022-11-28T17:47:17.528Z,24.57
2022-11-28T17:52:24.873Z,30.63
2022-11-28T17:57:30.798Z,31.90
2022-11-28T18:02:36.238Z,32.53
2022-11-28T18:07:41.882Z,29.20
2022-11-28T18:12:49.038Z,27.97
2022-11-28T18:17:56.487Z,27.13
2022-11-28T18:23:01.953Z,27.17
2022-11-28T18:28:07.986Z,25.50
2022-11-28T18:33:14.680Z,26.57
2022-11-28T18:38:20.676Z,25.37
2022-11-28T18:43:26.077Z,26.00
2022-11-28T18:48:31.464Z,27.77
2022-11-28T18:53:37.415Z,23.20
2022-11-28T18:58:44.844Z,26.73
2022-11-28T19:03:53.485Z,27.87
2022-11-28T19:09:01.600Z,29.87
2022-11-28T19:14:08.114Z,23.87
2022-11-28T19:19:13.978Z,27.00
2022-11-28T19:24:19.424Z,29.60
2022-11-28T19:29:25.311Z,24.67
2022-11-28T19:34:31.023Z,26.53
2022-11-28T19:39:36.447Z,29.83
2022-11-28T19:44:41.934Z,27.17
2022-11-28T19:49:47.539Z,26.73
2022-11-28T19:54:53.503Z,22.00
2022-11-28T19:59:58.973Z,24.00
2022-11-28T20:05:04.446Z,23.37
2022-11-28T20:10:11.020Z,28.20
2022-11-28T20:15:18.492Z,26.77
2022-11-28T20:20:24.981Z,24.77
2022-11-28T20:25:30.710Z,26.10
2022-11-28T20:30:37.697Z,30.63
2022-11-28T20:35:43.271Z,28.03
2022-11-28T20:40:48.745Z,28.53
2022-11-28T20:45:54.203Z,28.27
2022-11-28T20:51:00.000Z,25.07
2022-11-28T20:56:07.707Z,27.77
2022-11-28T21:01:18.442Z,28.00
2022-11-28T21:06:24.322Z,29.90
2022-11-28T21:11:55.582Z,27.77
2022-11-28T21:16:37.377Z,26.23
2022-11-28T21:21:43.355Z,23.43
2022-11-28T21:26:53.459Z,24.63
2022-11-28T21:31:56.517Z,28.93
2022-11-28T21:37:01.927Z,25.23
2022-11-28T21:42:07.592Z,27.87
2022-11-28T21:47:13.327Z,26.67
2022-11-28T21:52:20.433Z,31.73
2022-11-28T21:57:25.831Z,31.30
2022-11-28T22:02:31.828Z,28.43
2022-11-28T22:07:37.589Z,29.60
2022-11-28T22:12:45.732Z,28.33
2022-11-28T22:17:51.198Z,28.73
2022-11-28T22:22:56.580Z,31.97
2022-11-28T22:28:02.633Z,31.20
2022-11-28T22:33:08.362Z,28.17
2022-11-28T22:38:18.468Z,33.57
2022-11-28T22:43:24.051Z,34.00
2022-11-28T22:48:31.376Z,36.00
2022-11-28T22:53:36.938Z,32.60
2022-11-28T22:58:44.860Z,31.57
2022-11-28T23:03:51.251Z,34.78
2022-11-28T23:08:58.179Z,31.00
2022-11-28T23:14:05.408Z,33.57
2022-11-28T23:19:17.265Z,30.73
2022-11-28T23:24:24.128Z,34.37
2022-11-28T23:29:30.428Z,35.07
2022-11-28T23:34:36.282Z,36.73
2022-11-28T23:39:41.750Z,40.10
2022-11-28T23:44:47.775Z,30.77
2022-11-28T23:49:54.613Z,33.87
2022-11-28T23:55:00.103Z,38.80
